createdAt,value
2018-04-30T00:01:36.353Z,59.26
2018-04-30T00:04:03.835Z,59.33
2018-04-30T00:06:31.318Z,59.39
2018-04-30T00:08:58.777Z,59.35
2018-04-30T00:11:26.748Z,59.15
2018-04-30T00:13:54.227Z,59.54
2018-04-30T00:16:21.702Z,59.54
2018-04-30T00:18:49.149Z,59.48
2018-04-30T00:21:16.602Z,59.69
2018-04-30T00:23:44.074Z,59.92
2018-04-30T00:26:11.584Z,59.81
2018-04-30T00:28:39.714Z,59.74
2018-04-30T00:31:07.177Z,59.92
2018-04-30T00:33:34.660Z,59.95
2018-04-30T00:36:02.119Z,59.92
2018-04-30T00:38:29.590Z,59.96
2018-04-30T00:40:57.070Z,59.66
2018-04-30T00:43:24.529Z,59.92
2018-04-30T00:45:52.075Z,59.55
2018-04-30T00:48:19.575Z,59.54
2018-04-30T00:50:47.058Z,59.51
2018-04-30T00:53:14.574Z,59.46
2018-04-30T00:55:42.033Z,59.54
2018-04-30T00:58:09.634Z,59.64
2018-04-30T01:00:37.257Z,59.31
2018-04-30T01:03:04.725Z,59.18
2018-04-30T01:05:32.195Z,58.96
2018-04-30T01:07:59.681Z,59.05
2018-04-30T01:10:27.141Z,59.32
2018-04-30T01:12:54.625Z,59.42
2018-04-30T01:15:22.100Z,59.41
2018-04-30T01:17:49.557Z,59.58
2018-04-30T01:20:17.016Z,59.42
2018-04-30T01:22:44.502Z,59.56
2018-04-30T01:25:11.964Z,59.89
2018-04-30T01:27:39.422Z,60.06
2018-04-30T01:30:06.905Z,59.97
2018-04-30T01:32:34.366Z,60.07
2018-04-30T01:35:01.890Z,60.22
2018-04-30T01:37:29.349Z,59.97
2018-04-30T01:39:56.827Z,59.85
2018-04-30T01:42:24.311Z,59.90
2018-04-30T01:44:51.797Z,60.35
2018-04-30T01:47:19.254Z,60.80
2018-04-30T01:49:46.722Z,61.49
2018-04-30T01:52:14.182Z,61.65
2018-04-30T01:54:41.697Z,61.56
2018-04-30T01:57:09.241Z,61.52
2018-04-30T01:59:36.694Z,61.60
2018-04-30T02:02:04.220Z,61.60
2018-04-30T02:04:31.842Z,61.67
2018-04-30T02:06:59.333Z,61.83
2018-04-30T02:09:26.789Z,61.83
2018-04-30T02:11:54.328Z,61.83
2018-04-30T02:14:21.870Z,61.77
2018-04-30T02:16:49.342Z,61.89
2018-04-30T02:19:16.860Z,61.88
2018-04-30T02:21:44.318Z,62.30
2018-04-30T02:24:11.817Z,62.63
2018-04-30T02:26:39.261Z,63.03
2018-04-30T02:29:06.770Z,63.50
2018-04-30T02:31:34.247Z,63.78
2018-04-30T02:34:01.738Z,63.74
2018-04-30T02:36:29.202Z,64.10
2018-04-30T02:38:56.687Z,64.09
2018-04-30T02:41:24.143Z,64.06
2018-04-30T02:43:51.598Z,63.55
2018-04-30T02:46:19.066Z,63.22
2018-04-30T02:48:46.526Z,63.00
2018-04-30T02:51:14.041Z,62.90
2018-04-30T02:53:41.512Z,62.86
2018-04-30T02:56:08.966Z,62.80
2018-04-30T02:58:36.438Z,62.66
2018-04-30T03:01:04.018Z,62.59
2018-04-30T03:03:31.425Z,62.60
2018-04-30T03:05:58.878Z,62.78
2018-04-30T03:08:26.357Z,62.82
2018-04-30T03:10:53.823Z,62.96
2018-04-30T03:13:21.324Z,62.97
2018-04-30T03:15:48.796Z,63.20
2018-04-30T03:18:16.270Z,63.31
2018-04-30T03:20:43.732Z,63.63
2018-04-30T03:23:11.177Z,63.66
2018-04-30T03:25:38.641Z,63.33
2018-04-30T03:28:06.126Z,61.96
2018-04-30T03:30:33.600Z,61.88
2018-04-30T03:33:01.069Z,61.34
2018-04-30T03:35:28.526Z,61.22
2018-04-30T03:37:56.025Z,60.74
2018-04-30T03:40:23.477Z,60.20
2018-04-30T03:42:50.926Z,60.28
2018-04-30T03:45:18.406Z,60.36
2018-04-30T03:47:45.873Z,60.32
2018-04-30T03:50:13.418Z,60.76
2018-04-30T03:52:40.875Z,60.79
2018-04-30T03:55:08.343Z,60.67
2018-04-30T03:57:35.803Z,60.61
2018-04-30T04:00:03.270Z,60.67
2018-04-30T04:05:51.478Z,60.41
2018-04-30T04:08:18.961Z,60.32
2018-04-30T04:10:46.415Z,60.10
2018-04-30T04:13:13.874Z,60.02
2018-04-30T04:15:41.366Z,59.89
2018-04-30T04:18:08.823Z,59.78
2018-04-30T04:20:36.288Z,59.58
2018-04-30T04:23:03.763Z,59.51
2018-04-30T04:25:31.259Z,59.00
2018-04-30T04:27:58.757Z,58.71
2018-04-30T04:30:26.234Z,58.14
2018-04-30T04:32:53.701Z,57.53
2018-04-30T04:35:21.187Z,57.35
2018-04-30T04:37:48.655Z,56.65
2018-04-30T04:40:16.151Z,56.40
2018-04-30T04:42:43.664Z,55.78
2018-04-30T04:45:11.152Z,55.39
2018-04-30T04:47:38.634Z,55.07
2018-04-30T04:50:06.166Z,54.41
2018-04-30T04:52:33.710Z,54.22
2018-04-30T04:55:01.192Z,54.12
2018-04-30T05:00:01.486Z,53.51
2018-04-30T05:02:28.968Z,52.92
2018-04-30T05:04:56.460Z,52.63
2018-04-30T05:07:23.951Z,52.26
2018-04-30T05:09:51.407Z,52.24
2018-04-30T05:12:18.873Z,51.97
2018-04-30T05:14:46.374Z,51.94
2018-04-30T05:17:13.918Z,51.86
2018-04-30T05:19:42.123Z,51.73
2018-04-30T05:22:09.605Z,51.87
2018-04-30T05:24:37.081Z,51.97
2018-04-30T05:27:04.540Z,52.06
2018-04-30T05:29:32.384Z,51.83
2018-04-30T05:31:59.880Z,52.15
2018-04-30T05:34:27.408Z,52.12
2018-04-30T05:36:54.875Z,52.53
2018-04-30T05:39:22.371Z,52.62
2018-04-30T05:41:50.134Z,52.45
2018-04-30T05:44:17.627Z,51.75
2018-04-30T05:46:45.121Z,51.45
2018-04-30T05:49:12.605Z,51.09
2018-04-30T05:51:40.064Z,50.85
2018-04-30T05:54:07.546Z,50.48
2018-04-30T05:56:35.010Z,49.75
2018-04-30T05:59:02.552Z,49.10
2018-04-30T06:01:30.003Z,48.60
2018-04-30T06:03:57.459Z,48.37
2018-04-30T06:06:24.935Z,47.42
2018-04-30T06:08:52.416Z,46.88
2018-04-30T06:11:19.892Z,46.42
2018-04-30T06:13:47.406Z,46.11
2018-04-30T06:16:14.882Z,45.69
2018-04-30T06:18:42.391Z,45.82
2018-04-30T06:21:09.911Z,45.81
2018-04-30T06:23:37.451Z,45.84
2018-04-30T06:26:04.982Z,45.67
2018-04-30T06:28:32.445Z,45.79
2018-04-30T06:30:59.917Z,45.95
2018-04-30T06:33:27.457Z,45.93
2018-04-30T06:35:54.999Z,45.78
2018-04-30T06:38:22.413Z,45.27
2018-04-30T06:40:49.892Z,44.69
2018-04-30T06:43:17.369Z,44.16
2018-04-30T06:45:44.848Z,43.64
2018-04-30T06:48:12.336Z,43.15
2018-04-30T06:50:39.822Z,43.14
2018-04-30T06:53:07.302Z,42.49
2018-04-30T06:55:34.760Z,42.50
2018-04-30T06:58:02.282Z,41.91
2018-04-30T07:00:29.749Z,41.72
2018-04-30T07:02:57.224Z,41.50
2018-04-30T07:05:24.735Z,41.09
2018-04-30T07:07:52.346Z,41.25
2018-04-30T07:10:19.802Z,40.64
2018-04-30T07:12:47.259Z,40.44
2018-04-30T07:15:14.730Z,40.44
2018-04-30T07:17:42.233Z,40.09
2018-04-30T07:20:09.770Z,39.97
2018-04-30T07:22:37.170Z,39.67
2018-04-30T07:25:04.700Z,39.00
2018-04-30T07:27:32.208Z,38.69
2018-04-30T07:29:59.697Z,38.68
2018-04-30T07:32:27.154Z,38.05
2018-04-30T07:34:54.614Z,37.84
2018-04-30T07:37:22.137Z,37.38
2018-04-30T07:39:49.618Z,36.96
2018-04-30T07:42:17.099Z,37.13
2018-04-30T07:44:44.565Z,37.00
2018-04-30T07:47:12.033Z,36.87
2018-04-30T07:49:39.488Z,36.39
2018-04-30T07:52:06.979Z,36.06
2018-04-30T07:54:34.503Z,36.19
2018-04-30T07:57:01.905Z,36.27
2018-04-30T07:59:29.407Z,35.80
2018-04-30T08:01:56.866Z,35.05
2018-04-30T08:04:24.342Z,34.77
2018-04-30T08:06:51.826Z,35.15
2018-04-30T08:09:19.284Z,35.49
2018-04-30T08:11:46.781Z,35.16
2018-04-30T08:14:14.226Z,34.65
2018-04-30T08:16:41.774Z,33.92
2018-04-30T08:19:09.269Z,33.34
2018-04-30T08:21:37.062Z,33.00
2018-04-30T08:24:04.483Z,33.22
2018-04-30T08:26:31.972Z,32.73
2018-04-30T08:28:59.454Z,32.99
2018-04-30T08:31:27.369Z,32.65
2018-04-30T08:33:54.864Z,32.68
2018-04-30T08:36:22.401Z,32.94
2018-04-30T08:38:49.881Z,33.01
2018-04-30T08:41:17.374Z,33.08
2018-04-30T08:43:45.112Z,33.00
2018-04-30T08:46:13.176Z,33.28
2018-04-30T08:48:40.708Z,33.16
2018-04-30T08:51:08.226Z,32.95
2018-04-30T08:53:35.690Z,32.66
2018-04-30T08:56:03.150Z,32.75
2018-04-30T08:58:30.618Z,32.87
2018-04-30T09:00:58.079Z,33.36
2018-04-30T09:03:25.649Z,33.38
2018-04-30T09:05:53.176Z,33.09
2018-04-30T09:08:20.646Z,32.74
2018-04-30T09:10:48.376Z,33.12
2018-04-30T09:13:15.850Z,33.04
2018-04-30T09:15:43.325Z,32.99
2018-04-30T09:18:10.835Z,33.31
2018-04-30T09:20:38.324Z,33.37
2018-04-30T09:23:05.793Z,33.05
2018-04-30T09:25:34.754Z,32.71
2018-04-30T09:28:02.323Z,32.59
2018-04-30T09:30:29.803Z,32.52
2018-04-30T09:32:57.293Z,32.74
2018-04-30T09:35:25.601Z,32.54
2018-04-30T09:37:53.106Z,32.33
2018-04-30T09:40:20.612Z,32.32
2018-04-30T09:42:48.340Z,32.75
2018-04-30T09:45:15.859Z,32.63
2018-04-30T09:47:43.330Z,32.36
2018-04-30T09:50:10.806Z,32.42
2018-04-30T09:52:38.274Z,32.54
2018-04-30T09:55:05.752Z,32.06
2018-04-30T09:57:33.246Z,31.12
2018-04-30T10:00:00.708Z,30.51
2018-04-30T10:02:28.175Z,30.64
2018-04-30T10:04:55.686Z,30.76
2018-04-30T10:07:23.242Z,31.06
2018-04-30T10:09:50.691Z,31.29
2018-04-30T10:12:18.944Z,31.08
2018-04-30T10:14:46.423Z,31.44
2018-04-30T10:17:13.936Z,31.35
2018-04-30T10:19:41.444Z,31.06
2018-04-30T10:22:08.916Z,31.04
2018-04-30T10:24:36.406Z,30.60
2018-04-30T10:27:03.919Z,30.79
2018-04-30T10:29:31.430Z,30.48
2018-04-30T10:31:58.911Z,30.62
2018-04-30T10:34:26.411Z,30.57
2018-04-30T10:36:53.895Z,30.45
2018-04-30T10:39:21.415Z,30.17
2018-04-30T10:41:48.873Z,30.11
2018-04-30T10:44:16.576Z,28.63
2018-04-30T10:46:44.053Z,27.42
2018-04-30T10:49:11.544Z,27.05
2018-04-30T10:51:39.119Z,27.03
2018-04-30T10:54:06.575Z,27.07
2018-04-30T10:56:34.060Z,27.04
2018-04-30T10:59:01.553Z,26.83
2018-04-30T11:01:29.041Z,26.61
2018-04-30T11:03:56.518Z,26.61
2018-04-30T11:06:24.061Z,26.74
2018-04-30T11:08:51.524Z,26.99
2018-04-30T11:11:18.988Z,26.80
2018-04-30T11:13:46.457Z,26.83
2018-04-30T11:16:14.143Z,26.91
2018-04-30T11:18:41.619Z,26.76
2018-04-30T11:21:09.102Z,27.06
2018-04-30T11:23:36.653Z,27.09
2018-04-30T11:26:04.727Z,26.85
2018-04-30T11:28:32.203Z,26.75
2018-04-30T11:30:59.718Z,26.04
2018-04-30T11:33:27.219Z,25.90
2018-04-30T11:35:54.752Z,25.54
2018-04-30T11:38:22.283Z,25.42
2018-04-30T11:40:49.796Z,25.24
2018-04-30T11:43:17.304Z,24.57
2018-04-30T11:45:45.466Z,24.98
2018-04-30T11:48:12.975Z,26.73
2018-04-30T11:50:40.471Z,27.58
2018-04-30T11:53:07.983Z,28.40
2018-04-30T11:55:35.474Z,29.37
2018-04-30T11:58:03.000Z,30.18
2018-04-30T12:00:30.452Z,30.32
2018-04-30T12:02:57.949Z,29.70
2018-04-30T12:05:25.438Z,28.53
2018-04-30T12:07:52.938Z,29.58
2018-04-30T12:10:20.455Z,28.65
2018-04-30T12:12:47.948Z,29.10
2018-04-30T12:15:15.458Z,29.08
2018-04-30T12:17:42.934Z,29.48
2018-04-30T12:20:10.429Z,29.60
2018-04-30T12:22:37.902Z,29.57
2018-04-30T12:25:05.465Z,29.80
2018-04-30T12:27:32.931Z,29.66
2018-04-30T12:30:00.419Z,29.67
2018-04-30T12:32:28.515Z,29.29
2018-04-30T12:34:55.987Z,28.18
2018-04-30T12:37:23.530Z,27.62
2018-04-30T12:39:51.205Z,26.76
2018-04-30T12:42:18.695Z,26.25
2018-04-30T12:44:46.216Z,26.23
2018-04-30T12:47:13.712Z,26.00
2018-04-30T12:49:41.234Z,26.58
2018-04-30T12:52:08.698Z,26.68
2018-04-30T12:54:36.161Z,26.29
2018-04-30T12:57:03.640Z,26.22
2018-04-30T12:59:31.166Z,25.70
2018-04-30T13:01:58.633Z,25.17
2018-04-30T13:04:26.098Z,25.41
2018-04-30T13:06:53.587Z,25.16
2018-04-30T13:09:21.153Z,25.33
2018-04-30T13:11:48.638Z,25.33
2018-04-30T13:14:16.131Z,24.18
2018-04-30T13:16:43.619Z,23.47
2018-04-30T13:19:11.125Z,22.69
2018-04-30T13:21:38.601Z,23.05
2018-04-30T13:24:06.104Z,23.28
2018-04-30T13:26:34.074Z,23.31
2018-04-30T13:29:01.563Z,22.59
2018-04-30T13:31:29.060Z,21.81
2018-04-30T13:33:56.531Z,21.80
2018-04-30T13:36:23.986Z,21.81
2018-04-30T13:38:51.452Z,21.80
2018-04-30T13:41:18.938Z,22.03
2018-04-30T13:43:46.475Z,21.86
2018-04-30T13:46:13.932Z,21.27
2018-04-30T13:48:41.415Z,19.80
2018-04-30T13:51:08.922Z,19.60
2018-04-30T13:53:36.407Z,19.34
2018-04-30T13:56:03.909Z,19.68
2018-04-30T13:58:31.434Z,19.64
2018-04-30T14:00:58.939Z,19.62
2018-04-30T14:03:26.410Z,19.47
2018-04-30T14:05:53.878Z,19.09
2018-04-30T14:08:21.337Z,18.49
2018-04-30T14:10:48.844Z,17.67
2018-04-30T14:13:16.363Z,17.51
2018-04-30T14:15:43.847Z,16.85
2018-04-30T14:18:11.324Z,16.86
2018-04-30T14:20:38.830Z,16.08
2018-04-30T14:23:06.347Z,15.81
2018-04-30T14:25:33.824Z,16.04
2018-04-30T14:28:01.300Z,15.73
2018-04-30T14:30:28.867Z,15.58
2018-04-30T14:32:56.416Z,15.48
2018-04-30T14:35:23.907Z,15.35
2018-04-30T14:37:51.402Z,15.55
2018-04-30T14:40:18.886Z,15.37
2018-04-30T14:42:46.439Z,14.99
2018-04-30T14:45:13.904Z,14.67
2018-04-30T14:47:41.387Z,14.87
2018-04-30T14:50:08.859Z,15.39
2018-04-30T14:52:36.330Z,14.87
2018-04-30T14:55:03.896Z,14.71
2018-04-30T14:57:31.383Z,15.17
2018-04-30T14:59:58.904Z,14.76
2018-04-30T15:02:26.398Z,15.04
2018-04-30T15:04:53.887Z,14.89
2018-04-30T15:07:21.367Z,14.69
2018-04-30T15:09:48.847Z,14.68
2018-04-30T15:12:16.332Z,14.93
2018-04-30T15:14:43.819Z,14.29
2018-04-30T15:17:11.285Z,13.77
2018-04-30T15:19:38.845Z,13.88
2018-04-30T15:22:06.343Z,13.84
2018-04-30T15:24:33.874Z,13.82
2018-04-30T15:27:01.374Z,13.52
2018-04-30T15:29:28.858Z,13.43
2018-04-30T15:31:56.351Z,13.44
2018-04-30T15:34:23.827Z,13.81
2018-04-30T15:36:51.464Z,13.94
2018-04-30T15:39:18.911Z,14.34
2018-04-30T15:41:46.379Z,14.79
2018-04-30T15:44:13.853Z,14.81
2018-04-30T15:46:41.344Z,14.58
2018-04-30T15:49:08.861Z,14.45
2018-04-30T15:51:36.347Z,14.38
2018-04-30T15:54:03.831Z,13.78
2018-04-30T15:56:31.364Z,14.67
2018-04-30T15:58:58.847Z,14.11
2018-04-30T16:01:26.415Z,13.91
2018-04-30T16:03:53.808Z,13.52
2018-04-30T16:06:21.277Z,14.01
2018-04-30T16:08:48.802Z,14.09
2018-04-30T16:11:16.278Z,14.12
2018-04-30T16:13:43.796Z,13.82
2018-04-30T16:16:11.283Z,13.58
2018-04-30T16:18:38.766Z,13.91
2018-04-30T16:21:06.245Z,13.45
2018-04-30T16:23:33.711Z,13.50
2018-04-30T16:26:01.158Z,13.51
2018-04-30T16:28:28.643Z,13.36
2018-04-30T16:30:56.280Z,13.45
2018-04-30T16:33:23.750Z,14.38
2018-04-30T16:35:51.369Z,14.63
2018-04-30T16:38:18.881Z,14.59
2018-04-30T16:40:46.413Z,14.16
2018-04-30T16:43:13.943Z,14.97
2018-04-30T16:45:41.396Z,15.07
2018-04-30T16:48:08.896Z,14.77
2018-04-30T16:50:36.358Z,15.58
2018-04-30T16:53:03.871Z,15.56
2018-04-30T16:55:31.351Z,15.49
2018-04-30T16:57:58.805Z,16.17
2018-04-30T17:00:26.347Z,16.64
2018-04-30T17:02:53.897Z,16.81
2018-04-30T17:05:21.334Z,17.38
2018-04-30T17:07:48.832Z,17.16
2018-04-30T17:10:16.304Z,17.33
2018-04-30T17:12:43.779Z,17.86
2018-04-30T17:15:11.297Z,18.39
2018-04-30T17:17:38.767Z,18.77
2018-04-30T17:20:06.237Z,18.59
2018-04-30T17:22:33.791Z,19.52
2018-04-30T17:25:01.276Z,19.85
2018-04-30T17:27:28.756Z,20.03
2018-04-30T17:29:56.277Z,20.62
2018-04-30T17:32:23.751Z,21.64
2018-04-30T17:34:51.260Z,23.20
2018-04-30T17:37:18.774Z,24.59
2018-04-30T17:39:46.282Z,25.20
2018-04-30T17:42:13.765Z,25.87
2018-04-30T17:44:41.283Z,26.72
2018-04-30T17:47:08.802Z,27.56
2018-04-30T17:49:36.285Z,28.01
2018-04-30T17:52:03.753Z,28.97
2018-04-30T17:54:31.254Z,29.10
2018-04-30T17:56:58.731Z,29.56
2018-04-30T17:59:26.194Z,30.12
2018-04-30T18:01:53.662Z,30.53
2018-04-30T18:04:21.146Z,30.81
2018-04-30T18:06:48.660Z,31.06
2018-04-30T18:09:16.126Z,31.34
2018-04-30T18:11:43.600Z,31.73
2018-04-30T18:14:11.174Z,32.14
2018-04-30T18:16:38.685Z,32.24
2018-04-30T18:19:06.189Z,32.51
2018-04-30T18:21:33.706Z,32.46
2018-04-30T18:24:01.170Z,32.60
2018-04-30T18:26:28.691Z,32.71
2018-04-30T18:28:56.122Z,32.67
2018-04-30T18:31:23.602Z,33.01
2018-04-30T18:33:51.099Z,32.96
2018-04-30T18:36:18.570Z,32.97
2018-04-30T18:38:46.155Z,33.19
2018-04-30T18:41:13.584Z,33.30
2018-04-30T18:43:41.048Z,33.27
2018-04-30T18:46:08.569Z,33.48
2018-04-30T18:48:36.136Z,33.46
2018-04-30T18:51:03.625Z,33.40
2018-04-30T18:53:31.106Z,33.53
2018-04-30T18:55:58.582Z,33.68
2018-04-30T18:58:26.090Z,33.69
2018-04-30T19:00:53.595Z,33.48
2018-04-30T19:03:21.058Z,33.57
2018-04-30T19:05:48.567Z,33.68
2018-04-30T19:08:16.075Z,33.53
2018-04-30T19:10:43.557Z,33.59
2018-04-30T19:13:11.075Z,33.66
2018-04-30T19:15:38.583Z,33.65
2018-04-30T19:18:06.120Z,33.74
2018-04-30T19:20:33.619Z,33.67
2018-04-30T19:23:01.115Z,33.60
2018-04-30T19:25:28.584Z,33.61
2018-04-30T19:27:56.070Z,33.56
2018-04-30T19:30:23.554Z,33.79
2018-04-30T19:32:51.032Z,33.76
2018-04-30T19:35:18.522Z,33.83
2018-04-30T19:37:46.006Z,33.76
2018-04-30T19:40:13.488Z,33.98
2018-04-30T19:42:40.965Z,34.04
2018-04-30T19:45:08.487Z,34.39
2018-04-30T19:47:35.962Z,34.73
2018-04-30T19:50:03.472Z,34.85
2018-04-30T19:52:30.988Z,34.95
2018-04-30T19:54:58.441Z,35.25
2018-04-30T19:57:25.915Z,35.66
2018-04-30T19:59:53.379Z,36.00
2018-04-30T20:02:20.898Z,36.03
2018-04-30T20:04:48.436Z,36.17
2018-04-30T20:07:15.945Z,36.66
2018-04-30T20:09:43.376Z,36.58
2018-04-30T20:12:10.891Z,36.82
2018-04-30T20:14:38.431Z,36.84
2018-04-30T20:17:05.942Z,36.75
2018-04-30T20:19:33.415Z,36.83
2018-04-30T20:22:00.897Z,36.96
2018-04-30T20:24:28.360Z,37.38
2018-04-30T20:26:55.998Z,37.27
2018-04-30T20:29:24.556Z,37.48
2018-04-30T20:31:52.071Z,37.57
2018-04-30T20:34:19.553Z,37.70
2018-04-30T20:36:47.036Z,37.22
2018-04-30T20:39:14.565Z,37.10
2018-04-30T20:41:42.033Z,37.09
2018-04-30T20:44:09.504Z,37.22
2018-04-30T20:46:37.104Z,37.50
2018-04-30T20:49:04.620Z,37.83
2018-04-30T20:51:32.136Z,38.02
2018-04-30T20:53:59.636Z,38.28
2018-04-30T20:56:27.120Z,38.61
2018-04-30T20:58:54.628Z,38.81
2018-04-30T21:01:22.178Z,39.11
2018-04-30T21:03:49.662Z,39.45
2018-04-30T21:06:17.167Z,39.72
2018-04-30T21:08:56.365Z,39.82
2018-04-30T21:11:23.858Z,39.77
2018-04-30T21:13:51.378Z,40.17
2018-04-30T21:16:18.957Z,40.61
2018-04-30T21:18:47.325Z,41.46
2018-04-30T21:21:14.835Z,42.63
2018-04-30T21:23:42.334Z,42.68
2018-04-30T21:26:09.878Z,42.79
2018-04-30T21:28:37.367Z,43.49
2018-04-30T21:31:04.962Z,43.92
2018-04-30T21:33:32.442Z,44.85
2018-04-30T21:36:00.008Z,45.46
2018-04-30T21:38:27.760Z,46.20
2018-04-30T21:40:55.238Z,46.52
2018-04-30T21:43:22.759Z,47.02
2018-04-30T21:45:50.266Z,47.67
2018-04-30T21:48:17.750Z,48.28
2018-04-30T21:50:45.265Z,49.17
2018-04-30T21:53:12.845Z,49.93
2018-04-30T21:55:40.345Z,50.72
2018-04-30T21:58:09.793Z,51.76
2018-04-30T22:00:38.409Z,52.20
2018-04-30T22:03:05.975Z,53.65
2018-04-30T22:05:33.475Z,53.97
2018-04-30T22:08:00.944Z,54.25
2018-04-30T22:10:28.533Z,54.19
2018-04-30T22:12:56.099Z,54.48
2018-04-30T22:15:26.232Z,54.44
2018-04-30T22:17:53.753Z,54.77
2018-04-30T22:20:23.248Z,54.73
2018-04-30T22:22:50.812Z,54.95
2018-04-30T22:25:18.341Z,55.23
2018-04-30T22:27:46.592Z,55.25
2018-04-30T22:30:14.103Z,55.29
2018-04-30T22:32:42.365Z,55.29
2018-04-30T22:35:09.861Z,55.11
2018-04-30T22:37:37.383Z,54.79
2018-04-30T22:40:04.908Z,54.82
2018-04-30T22:42:32.409Z,54.95
2018-04-30T22:44:59.886Z,54.67
2018-04-30T22:47:27.367Z,54.50
2018-04-30T22:49:54.906Z,54.34
2018-04-30T22:52:22.501Z,54.55
2018-04-30T22:54:51.798Z,54.37
2018-04-30T22:57:19.313Z,53.98
2018-04-30T22:59:46.816Z,54.05
2018-04-30T23:11:55.413Z,54.27
2018-04-30T23:14:22.930Z,54.35
2018-04-30T23:16:50.475Z,54.31
2018-04-30T23:19:18.032Z,54.20
2018-04-30T23:21:46.884Z,54.27
2018-04-30T23:24:14.371Z,54.33
2018-04-30T23:26:41.907Z,54.42
2018-04-30T23:29:09.412Z,54.43
2018-04-30T23:31:39.438Z,54.57
2018-04-30T23:34:06.966Z,54.83
2018-04-30T23:36:34.552Z,54.79
2018-04-30T23:39:02.082Z,54.68
2018-04-30T23:41:29.550Z,54.67
2018-04-30T23:43:57.216Z,54.69
2018-04-30T23:46:24.679Z,54.77
2018-04-30T23:48:52.203Z,54.56
2018-04-30T23:51:19.684Z,54.58
2018-04-30T23:53:47.214Z,54.55
2018-04-30T23:56:14.711Z,54.80
2018-04-30T23:58:43.103Z,54.58
